sensor_id;sensor_type;location;lat;lon;timestamp;P1;durP1;ratioP1;P2;durP2;ratioP2
34060;SDS011;20336;-33.424;-70.638;2024-01-10T00:00:05;12.35;;;1.92;;
34060;SDS011;20336;-33.424;-70.638;2024-01-10T00:02:32;12.35;;;2.03;;
34060;SDS011;20336;-33.424;-70.638;2024-01-10T00:04:59;7.72;;;1.75;;
34060;SDS011;20336;-33.424;-70.638;2024-01-10T00:07:26;11.65;;;1.75;;
34060;SDS011;20336;-33.424;-70.638;2024-01-10T00:09:53;5.57;;;1.45;;
34060;SDS011;20336;-33.424;-70.638;2024-01-10T00:12:21;9.02;;;1.65;;
34060;SDS011;20336;-33.424;-70.638;2024-01-10T00:14:48;10.88;;;1.83;;
34060;SDS011;20336;-33.424;-70.638;2024-01-10T00:17:15;11.15;;;1.92;;
34060;SDS011;20336;-33.424;-70.638;2024-01-10T00:19:42;13.85;;;1.92;;
34060;SDS011;20336;-33.424;-70.638;2024-01-10T00:22:09;12.85;;;2.10;;
34060;SDS011;20336;-33.424;-70.638;2024-01-10T00:24:36;7.25;;;1.70;;
34060;SDS011;20336;-33.424;-70.638;2024-01-10T00:27:03;13.48;;;2.20;;
34060;SDS011;20336;-33.424;-70.638;2024-01-10T00:29:30;8.38;;;2.10;;
34060;SDS011;20336;-33.424;-70.638;2024-01-10T00:31:57;10.70;;;2.20;;
34060;SDS011;20336;-33.424;-70.638;2024-01-10T00:34:25;12.73;;;2.05;;
34060;SDS011;20336;-33.424;-70.638;2024-01-10T00:36:52;188.43;;;13.63;;
34060;SDS011;20336;-33.424;-70.638;2024-01-10T00:39:19;29.13;;;3.55;;
34060;SDS011;20336;-33.424;-70.638;2024-01-10T00:41:46;16.98;;;1.88;;
34060;SDS011;20336;-33.424;-70.638;2024-01-10T00:44:13;7.43;;;1.73;;
34060;SDS011;20336;-33.424;-70.638;2024-01-10T00:46:40;7.85;;;1.60;;
34060;SDS011;20336;-33.424;-70.638;2024-01-10T00:49:07;7.47;;;1.45;;
34060;SDS011;20336;-33.424;-70.638;2024-01-10T00:54:35;8.13;;;1.70;;
34060;SDS011;20336;-33.424;-70.638;2024-01-10T00:57:02;9.43;;;1.90;;
34060;SDS011;20336;-33.424;-70.638;2024-01-10T00:59:29;14.10;;;2.10;;
34060;SDS011;20336;-33.424;-70.638;2024-01-10T01:01:56;9.38;;;1.80;;
34060;SDS011;20336;-33.424;-70.638;2024-01-10T01:04:23;17.33;;;2.05;;
34060;SDS011;20336;-33.424;-70.638;2024-01-10T01:06:50;31.52;;;3.05;;
34060;SDS011;20336;-33.424;-70.638;2024-01-10T01:09:17;18.92;;;2.35;;
34060;SDS011;20336;-33.424;-70.638;2024-01-10T01:11:44;12.05;;;2.10;;
34060;SDS011;20336;-33.424;-70.638;2024-01-10T01:14:11;12.27;;;1.90;;
34060;SDS011;20336;-33.424;-70.638;2024-01-10T01:16:38;5.80;;;1.65;;
34060;SDS011;20336;-33.424;-70.638;2024-01-10T01:19:05;10.88;;;2.40;;
34060;SDS011;20336;-33.424;-70.638;2024-01-10T01:21:32;4.78;;;1.70;;
34060;SDS011;20336;-33.424;-70.638;2024-01-10T01:23:59;10.73;;;1.55;;
34060;SDS011;20336;-33.424;-70.638;2024-01-10T01:26:26;6.50;;;1.80;;
34060;SDS011;20336;-33.424;-70.638;2024-01-10T01:28:53;6.68;;;1.50;;
34060;SDS011;20336;-33.424;-70.638;2024-01-10T01:31:20;4.82;;;1.58;;
34060;SDS011;20336;-33.424;-70.638;2024-01-10T01:33:47;12.85;;;1.98;;
34060;SDS011;20336;-33.424;-70.638;2024-01-10T01:36:14;7.20;;;1.52;;
34060;SDS011;20336;-33.424;-70.638;2024-01-10T01:38:41;4.13;;;1.52;;
34060;SDS011;20336;-33.424;-70.638;2024-01-10T01:41:08;7.35;;;1.58;;
34060;SDS011;20336;-33.424;-70.638;2024-01-10T01:43:35;6.45;;;1.73;;
34060;SDS011;20336;-33.424;-70.638;2024-01-10T01:46:02;5.22;;;1.50;;
34060;SDS011;20336;-33.424;-70.638;2024-01-10T01:48:29;7.72;;;1.85;;
34060;SDS011;20336;-33.424;-70.638;2024-01-10T01:50:57;8.95;;;2.15;;
34060;SDS011;20336;-33.424;-70.638;2024-01-10T01:53:24;4.18;;;1.48;;
34060;SDS011;20336;-33.424;-70.638;2024-01-10T01:55:52;5.97;;;1.73;;
34060;SDS011;20336;-33.424;-70.638;2024-01-10T01:58:19;6.10;;;1.92;;
34060;SDS011;20336;-33.424;-70.638;2024-01-10T02:00:46;12.63;;;1.90;;
34060;SDS011;20336;-33.424;-70.638;2024-01-10T02:03:13;9.75;;;1.42;;
34060;SDS011;20336;-33.424;-70.638;2024-01-10T02:05:40;7.60;;;1.73;;
34060;SDS011;20336;-33.424;-70.638;2024-01-10T02:08:08;5.50;;;1.52;;
34060;SDS011;20336;-33.424;-70.638;2024-01-10T02:10:35;8.75;;;1.67;;
34060;SDS011;20336;-33.424;-70.638;2024-01-10T02:13:02;7.60;;;1.88;;
34060;SDS011;20336;-33.424;-70.638;2024-01-10T02:15:30;8.23;;;1.67;;
34060;SDS011;20336;-33.424;-70.638;2024-01-10T02:17:57;9.68;;;2.03;;
34060;SDS011;20336;-33.424;-70.638;2024-01-10T02:20:24;5.53;;;1.42;;
34060;SDS011;20336;-33.424;-70.638;2024-01-10T02:22:51;6.30;;;1.45;;
34060;SDS011;20336;-33.424;-70.638;2024-01-10T02:25:18;8.32;;;1.70;;
34060;SDS011;20336;-33.424;-70.638;2024-01-10T02:27:46;6.63;;;1.80;;
34060;SDS011;20336;-33.424;-70.638;2024-01-10T02:30:14;8.60;;;1.90;;
34060;SDS011;20336;-33.424;-70.638;2024-01-10T02:32:41;6.03;;;1.40;;
34060;SDS011;20336;-33.424;-70.638;2024-01-10T02:35:08;5.45;;;1.40;;
34060;SDS011;20336;-33.424;-70.638;2024-01-10T02:37:35;7.50;;;1.98;;
34060;SDS011;20336;-33.424;-70.638;2024-01-10T02:40:02;4.63;;;1.40;;
34060;SDS011;20336;-33.424;-70.638;2024-01-10T02:42:31;7.25;;;1.40;;
34060;SDS011;20336;-33.424;-70.638;2024-01-10T02:44:58;8.52;;;1.70;;
34060;SDS011;20336;-33.424;-70.638;2024-01-10T02:47:25;7.18;;;1.50;;
34060;SDS011;20336;-33.424;-70.638;2024-01-10T02:49:52;8.23;;;1.60;;
34060;SDS011;20336;-33.424;-70.638;2024-01-10T02:52:19;4.88;;;1.20;;
34060;SDS011;20336;-33.424;-70.638;2024-01-10T02:54:46;10.38;;;1.77;;
34060;SDS011;20336;-33.424;-70.638;2024-01-10T02:57:13;7.07;;;1.40;;
34060;SDS011;20336;-33.424;-70.638;2024-01-10T02:59:40;5.30;;;1.20;;
34060;SDS011;20336;-33.424;-70.638;2024-01-10T03:02:07;4.60;;;1.13;;
34060;SDS011;20336;-33.424;-70.638;2024-01-10T03:04:34;5.88;;;1.55;;
34060;SDS011;20336;-33.424;-70.638;2024-01-10T03:07:01;4.80;;;1.27;;
34060;SDS011;20336;-33.424;-70.638;2024-01-10T03:09:28;3.42;;;1.20;;
34060;SDS011;20336;-33.424;-70.638;2024-01-10T03:11:55;6.43;;;1.60;;
34060;SDS011;20336;-33.424;-70.638;2024-01-10T03:14:22;6.70;;;1.52;;
34060;SDS011;20336;-33.424;-70.638;2024-01-10T03:16:49;7.63;;;1.30;;
34060;SDS011;20336;-33.424;-70.638;2024-01-10T03:19:16;4.78;;;1.45;;
34060;SDS011;20336;-33.424;-70.638;2024-01-10T03:21:43;3.83;;;1.30;;
34060;SDS011;20336;-33.424;-70.638;2024-01-10T03:24:10;6.97;;;1.27;;
34060;SDS011;20336;-33.424;-70.638;2024-01-10T03:26:37;4.38;;;1.20;;
34060;SDS011;20336;-33.424;-70.638;2024-01-10T03:29:04;6.40;;;1.27;;
34060;SDS011;20336;-33.424;-70.638;2024-01-10T03:31:31;9.98;;;1.40;;
34060;SDS011;20336;-33.424;-70.638;2024-01-10T03:33:58;8.13;;;1.70;;
34060;SDS011;20336;-33.424;-70.638;2024-01-10T03:36:25;5.72;;;1.85;;
34060;SDS011;20336;-33.424;-70.638;2024-01-10T03:38:52;4.80;;;1.45;;
34060;SDS011;20336;-33.424;-70.638;2024-01-10T03:41:19;7.03;;;1.42;;
34060;SDS011;20336;-33.424;-70.638;2024-01-10T03:43:47;5.97;;;1.45;;
34060;SDS011;20336;-33.424;-70.638;2024-01-10T03:46:15;7.47;;;1.48;;
34060;SDS011;20336;-33.424;-70.638;2024-01-10T03:48:43;5.70;;;1.40;;
34060;SDS011;20336;-33.424;-70.638;2024-01-10T03:51:14;4.55;;;1.17;;
34060;SDS011;20336;-33.424;-70.638;2024-01-10T03:53:41;6.32;;;1.40;;
34060;SDS011;20336;-33.424;-70.638;2024-01-10T03:56:08;5.50;;;1.60;;
34060;SDS011;20336;-33.424;-70.638;2024-01-10T03:58:35;6.53;;;1.48;;
34060;SDS011;20336;-33.424;-70.638;2024-01-10T04:01:05;4.93;;;1.10;;
34060;SDS011;20336;-33.424;-70.638;2024-01-10T04:03:33;3.50;;;1.23;;
34060;SDS011;20336;-33.424;-70.638;2024-01-10T04:06:00;5.97;;;1.42;;
34060;SDS011;20336;-33.424;-70.638;2024-01-10T04:08:28;4.35;;;1.40;;
34060;SDS011;20336;-33.424;-70.638;2024-01-10T04:10:55;7.13;;;1.40;;
34060;SDS011;20336;-33.424;-70.638;2024-01-10T04:13:23;4.53;;;1.42;;
34060;SDS011;20336;-33.424;-70.638;2024-01-10T04:15:50;7.85;;;1.40;;
34060;SDS011;20336;-33.424;-70.638;2024-01-10T04:18:17;4.30;;;1.20;;
34060;SDS011;20336;-33.424;-70.638;2024-01-10T04:20:44;4.70;;;1.38;;
34060;SDS011;20336;-33.424;-70.638;2024-01-10T04:23:11;4.10;;;1.40;;
34060;SDS011;20336;-33.424;-70.638;2024-01-10T04:25:38;6.40;;;1.20;;
34060;SDS011;20336;-33.424;-70.638;2024-01-10T04:28:05;5.75;;;1.77;;
34060;SDS011;20336;-33.424;-70.638;2024-01-10T04:30:32;7.28;;;1.50;;
34060;SDS011;20336;-33.424;-70.638;2024-01-10T04:32:59;6.38;;;1.40;;
34060;SDS011;20336;-33.424;-70.638;2024-01-10T04:35:26;7.82;;;1.58;;
34060;SDS011;20336;-33.424;-70.638;2024-01-10T04:37:53;3.28;;;1.30;;
34060;SDS011;20336;-33.424;-70.638;2024-01-10T04:40:20;5.63;;;1.25;;
34060;SDS011;20336;-33.424;-70.638;2024-01-10T04:42:47;6.10;;;1.67;;
34060;SDS011;20336;-33.424;-70.638;2024-01-10T04:45:14;4.43;;;1.30;;
34060;SDS011;20336;-33.424;-70.638;2024-01-10T04:47:40;4.43;;;1.10;;
34060;SDS011;20336;-33.424;-70.638;2024-01-10T04:50:08;5.82;;;1.20;;
34060;SDS011;20336;-33.424;-70.638;2024-01-10T04:52:35;4.60;;;1.50;;
34060;SDS011;20336;-33.424;-70.638;2024-01-10T04:55:02;5.97;;;1.35;;
34060;SDS011;20336;-33.424;-70.638;2024-01-10T04:57:31;6.60;;;1.13;;
34060;SDS011;20336;-33.424;-70.638;2024-01-10T04:59:58;4.30;;;1.40;;
34060;SDS011;20336;-33.424;-70.638;2024-01-10T05:02:25;3.10;;;1.00;;
34060;SDS011;20336;-33.424;-70.638;2024-01-10T05:04:52;4.13;;;1.42;;
34060;SDS011;20336;-33.424;-70.638;2024-01-10T05:07:19;6.28;;;1.35;;
34060;SDS011;20336;-33.424;-70.638;2024-01-10T05:09:46;6.05;;;1.60;;
34060;SDS011;20336;-33.424;-70.638;2024-01-10T05:12:13;6.70;;;1.40;;
34060;SDS011;20336;-33.424;-70.638;2024-01-10T05:14:40;7.05;;;1.27;;
34060;SDS011;20336;-33.424;-70.638;2024-01-10T05:17:07;5.43;;;1.33;;
34060;SDS011;20336;-33.424;-70.638;2024-01-10T05:19:34;6.13;;;1.35;;
34060;SDS011;20336;-33.424;-70.638;2024-01-10T05:22:01;7.35;;;1.65;;
34060;SDS011;20336;-33.424;-70.638;2024-01-10T05:24:28;3.00;;;0.95;;
34060;SDS011;20336;-33.424;-70.638;2024-01-10T05:26:55;4.57;;;1.20;;
34060;SDS011;20336;-33.424;-70.638;2024-01-10T05:29:22;5.35;;;1.52;;
34060;SDS011;20336;-33.424;-70.638;2024-01-10T05:31:49;4.03;;;1.17;;
34060;SDS011;20336;-33.424;-70.638;2024-01-10T05:34:16;5.38;;;1.23;;
34060;SDS011;20336;-33.424;-70.638;2024-01-10T05:36:43;5.93;;;1.48;;
34060;SDS011;20336;-33.424;-70.638;2024-01-10T05:39:11;7.13;;;1.40;;
34060;SDS011;20336;-33.424;-70.638;2024-01-10T05:41:41;4.43;;;1.17;;
34060;SDS011;20336;-33.424;-70.638;2024-01-10T05:44:09;5.35;;;1.35;;
34060;SDS011;20336;-33.424;-70.638;2024-01-10T05:46:36;7.38;;;1.52;;
34060;SDS011;20336;-33.424;-70.638;2024-01-10T05:49:03;4.75;;;1.27;;
34060;SDS011;20336;-33.424;-70.638;2024-01-10T05:51:31;5.57;;;1.33;;
34060;SDS011;20336;-33.424;-70.638;2024-01-10T05:53:58;5.50;;;1.35;;
34060;SDS011;20336;-33.424;-70.638;2024-01-10T05:56:25;2.63;;;1.10;;
34060;SDS011;20336;-33.424;-70.638;2024-01-10T05:58:52;4.90;;;1.30;;
34060;SDS011;20336;-33.424;-70.638;2024-01-10T06:01:19;6.15;;;1.20;;
34060;SDS011;20336;-33.424;-70.638;2024-01-10T06:03:46;5.78;;;1.40;;
34060;SDS011;20336;-33.424;-70.638;2024-01-10T06:06:13;4.55;;;1.10;;
34060;SDS011;20336;-33.424;-70.638;2024-01-10T06:08:40;6.18;;;1.35;;
34060;SDS011;20336;-33.424;-70.638;2024-01-10T06:11:07;7.15;;;1.45;;
34060;SDS011;20336;-33.424;-70.638;2024-01-10T06:13:35;7.93;;;1.50;;
34060;SDS011;20336;-33.424;-70.638;2024-01-10T06:16:06;7.10;;;1.02;;
34060;SDS011;20336;-33.424;-70.638;2024-01-10T06:18:33;5.55;;;1.20;;
34060;SDS011;20336;-33.424;-70.638;2024-01-10T06:21:00;5.75;;;1.55;;
34060;SDS011;20336;-33.424;-70.638;2024-01-10T06:23:27;6.55;;;1.10;;
34060;SDS011;20336;-33.424;-70.638;2024-01-10T06:25:54;2.70;;;1.30;;
34060;SDS011;20336;-33.424;-70.638;2024-01-10T06:28:21;4.68;;;1.27;;
34060;SDS011;20336;-33.424;-70.638;2024-01-10T06:30:49;9.77;;;1.58;;
34060;SDS011;20336;-33.424;-70.638;2024-01-10T06:33:16;6.72;;;1.27;;
34060;SDS011;20336;-33.424;-70.638;2024-01-10T06:35:43;8.25;;;1.48;;
34060;SDS011;20336;-33.424;-70.638;2024-01-10T06:38:10;5.22;;;1.20;;
34060;SDS011;20336;-33.424;-70.638;2024-01-10T06:40:37;6.53;;;1.55;;
34060;SDS011;20336;-33.424;-70.638;2024-01-10T06:43:06;4.05;;;1.48;;
34060;SDS011;20336;-33.424;-70.638;2024-01-10T06:45:34;6.07;;;1.30;;
34060;SDS011;20336;-33.424;-70.638;2024-01-10T06:48:01;6.20;;;1.25;;
34060;SDS011;20336;-33.424;-70.638;2024-01-10T06:50:28;8.65;;;1.02;;
34060;SDS011;20336;-33.424;-70.638;2024-01-10T06:52:56;6.63;;;1.35;;
34060;SDS011;20336;-33.424;-70.638;2024-01-10T06:55:23;6.65;;;1.67;;
34060;SDS011;20336;-33.424;-70.638;2024-01-10T06:57:50;6.15;;;1.55;;
34060;SDS011;20336;-33.424;-70.638;2024-01-10T07:00:19;5.97;;;1.65;;
34060;SDS011;20336;-33.424;-70.638;2024-01-10T07:02:46;4.63;;;1.33;;
34060;SDS011;20336;-33.424;-70.638;2024-01-10T07:05:14;3.20;;;1.40;;
34060;SDS011;20336;-33.424;-70.638;2024-01-10T07:07:41;7.07;;;1.58;;
34060;SDS011;20336;-33.424;-70.638;2024-01-10T07:10:09;4.07;;;1.10;;
34060;SDS011;20336;-33.424;-70.638;2024-01-10T07:12:36;6.68;;;1.42;;
34060;SDS011;20336;-33.424;-70.638;2024-01-10T07:15:03;4.15;;;1.63;;
34060;SDS011;20336;-33.424;-70.638;2024-01-10T07:17:30;4.75;;;1.83;;
34060;SDS011;20336;-33.424;-70.638;2024-01-10T07:19:58;4.10;;;1.38;;
34060;SDS011;20336;-33.424;-70.638;2024-01-10T07:22:25;4.38;;;1.52;;
34060;SDS011;20336;-33.424;-70.638;2024-01-10T07:24:52;4.13;;;1.27;;
34060;SDS011;20336;-33.424;-70.638;2024-01-10T07:27:19;4.22;;;1.35;;
34060;SDS011;20336;-33.424;-70.638;2024-01-10T07:29:47;7.32;;;1.52;;
34060;SDS011;20336;-33.424;-70.638;2024-01-10T07:32:14;7.00;;;1.50;;
34060;SDS011;20336;-33.424;-70.638;2024-01-10T07:34:44;4.68;;;1.65;;
34060;SDS011;20336;-33.424;-70.638;2024-01-10T07:37:12;5.55;;;1.42;;
34060;SDS011;20336;-33.424;-70.638;2024-01-10T07:39:42;5.63;;;1.40;;
34060;SDS011;20336;-33.424;-70.638;2024-01-10T07:42:09;7.18;;;1.50;;
34060;SDS011;20336;-33.424;-70.638;2024-01-10T07:44:36;6.60;;;1.98;;
34060;SDS011;20336;-33.424;-70.638;2024-01-10T07:47:03;4.78;;;1.40;;
34060;SDS011;20336;-33.424;-70.638;2024-01-10T07:49:30;4.25;;;1.60;;
34060;SDS011;20336;-33.424;-70.638;2024-01-10T07:51:57;10.13;;;1.75;;
34060;SDS011;20336;-33.424;-70.638;2024-01-10T07:54:24;4.90;;;1.52;;
34060;SDS011;20336;-33.424;-70.638;2024-01-10T07:56:51;5.75;;;1.70;;
34060;SDS011;20336;-33.424;-70.638;2024-01-10T07:59:20;8.55;;;1.45;;
34060;SDS011;20336;-33.424;-70.638;2024-01-10T08:01:54;7.00;;;1.65;;
34060;SDS011;20336;-33.424;-70.638;2024-01-10T08:04:24;4.38;;;1.30;;
34060;SDS011;20336;-33.424;-70.638;2024-01-10T08:06:52;9.95;;;1.52;;
34060;SDS011;20336;-33.424;-70.638;2024-01-10T08:09:21;7.70;;;2.00;;
34060;SDS011;20336;-33.424;-70.638;2024-01-10T08:11:51;5.68;;;1.77;;
34060;SDS011;20336;-33.424;-70.638;2024-01-10T08:14:18;10.10;;;1.98;;
34060;SDS011;20336;-33.424;-70.638;2024-01-10T08:16:46;5.43;;;1.70;;
34060;SDS011;20336;-33.424;-70.638;2024-01-10T08:19:13;7.90;;;2.00;;
34060;SDS011;20336;-33.424;-70.638;2024-01-10T08:21:40;8.55;;;1.67;;
34060;SDS011;20336;-33.424;-70.638;2024-01-10T08:24:07;4.95;;;1.90;;
34060;SDS011;20336;-33.424;-70.638;2024-01-10T08:26:34;6.88;;;1.70;;
34060;SDS011;20336;-33.424;-70.638;2024-01-10T08:29:03;5.85;;;1.90;;
34060;SDS011;20336;-33.424;-70.638;2024-01-10T08:31:30;6.95;;;1.70;;
34060;SDS011;20336;-33.424;-70.638;2024-01-10T08:33:58;5.22;;;1.92;;
34060;SDS011;20336;-33.424;-70.638;2024-01-10T08:36:25;11.50;;;2.33;;
34060;SDS011;20336;-33.424;-70.638;2024-01-10T08:38:52;7.55;;;2.00;;
34060;SDS011;20336;-33.424;-70.638;2024-01-10T08:41:19;8.25;;;2.13;;
34060;SDS011;20336;-33.424;-70.638;2024-01-10T08:43:47;6.47;;;1.90;;
34060;SDS011;20336;-33.424;-70.638;2024-01-10T08:46:14;8.35;;;2.50;;
34060;SDS011;20336;-33.424;-70.638;2024-01-10T08:48:41;12.10;;;2.60;;
34060;SDS011;20336;-33.424;-70.638;2024-01-10T08:51:08;7.82;;;2.15;;
34060;SDS011;20336;-33.424;-70.638;2024-01-10T08:53:36;7.40;;;2.20;;
34060;SDS011;20336;-33.424;-70.638;2024-01-10T08:56:03;7.18;;;1.98;;
34060;SDS011;20336;-33.424;-70.638;2024-01-10T08:58:30;6.55;;;2.20;;
34060;SDS011;20336;-33.424;-70.638;2024-01-10T09:00:58;6.15;;;2.17;;
34060;SDS011;20336;-33.424;-70.638;2024-01-10T09:03:25;7.95;;;2.33;;
34060;SDS011;20336;-33.424;-70.638;2024-01-10T09:05:52;13.32;;;2.28;;
34060;SDS011;20336;-33.424;-70.638;2024-01-10T09:08:19;5.43;;;1.95;;
34060;SDS011;20336;-33.424;-70.638;2024-01-10T09:10:47;8.70;;;2.35;;
34060;SDS011;20336;-33.424;-70.638;2024-01-10T09:13:17;6.80;;;2.10;;
34060;SDS011;20336;-33.424;-70.638;2024-01-10T09:15:44;4.90;;;2.15;;
34060;SDS011;20336;-33.424;-70.638;2024-01-10T09:18:11;6.60;;;2.33;;
34060;SDS011;20336;-33.424;-70.638;2024-01-10T09:20:39;7.38;;;2.30;;
34060;SDS011;20336;-33.424;-70.638;2024-01-10T09:23:06;8.27;;;2.25;;
34060;SDS011;20336;-33.424;-70.638;2024-01-10T09:25:33;7.82;;;2.80;;
34060;SDS011;20336;-33.424;-70.638;2024-01-10T09:28:00;6.32;;;2.47;;
34060;SDS011;20336;-33.424;-70.638;2024-01-10T09:30:27;22.75;;;3.47;;
34060;SDS011;20336;-33.424;-70.638;2024-01-10T09:32:54;29.42;;;3.60;;
34060;SDS011;20336;-33.424;-70.638;2024-01-10T09:35:22;12.75;;;2.92;;
34060;SDS011;20336;-33.424;-70.638;2024-01-10T09:37:49;8.70;;;2.65;;
34060;SDS011;20336;-33.424;-70.638;2024-01-10T09:40:16;31.40;;;3.63;;
34060;SDS011;20336;-33.424;-70.638;2024-01-10T09:42:44;6.03;;;2.10;;
34060;SDS011;20336;-33.424;-70.638;2024-01-10T09:45:11;9.15;;;2.22;;
34060;SDS011;20336;-33.424;-70.638;2024-01-10T09:47:39;11.57;;;2.65;;
34060;SDS011;20336;-33.424;-70.638;2024-01-10T09:50:08;9.60;;;2.08;;
34060;SDS011;20336;-33.424;-70.638;2024-01-10T09:55:14;9.35;;;2.40;;
34060;SDS011;20336;-33.424;-70.638;2024-01-10T09:57:42;12.13;;;2.65;;
34060;SDS011;20336;-33.424;-70.638;2024-01-10T10:00:10;7.90;;;2.60;;
34060;SDS011;20336;-33.424;-70.638;2024-01-10T10:02:38;11.73;;;2.80;;
34060;SDS011;20336;-33.424;-70.638;2024-01-10T10:05:10;7.53;;;3.08;;
34060;SDS011;20336;-33.424;-70.638;2024-01-10T10:10:11;12.40;;;2.90;;
34060;SDS011;20336;-33.424;-70.638;2024-01-10T10:12:43;4.93;;;2.50;;
34060;SDS011;20336;-33.424;-70.638;2024-01-10T10:15:14;7.97;;;2.17;;
34060;SDS011;20336;-33.424;-70.638;2024-01-10T10:17:43;11.32;;;2.67;;
34060;SDS011;20336;-33.424;-70.638;2024-01-10T10:20:13;8.98;;;2.58;;
34060;SDS011;20336;-33.424;-70.638;2024-01-10T10:22:41;15.48;;;2.53;;
34060;SDS011;20336;-33.424;-70.638;2024-01-10T10:25:30;13.30;;;2.67;;
34060;SDS011;20336;-33.424;-70.638;2024-01-10T10:27:58;6.35;;;1.83;;
34060;SDS011;20336;-33.424;-70.638;2024-01-10T10:30:25;9.50;;;1.88;;
34060;SDS011;20336;-33.424;-70.638;2024-01-10T10:32:52;6.70;;;2.00;;
34060;SDS011;20336;-33.424;-70.638;2024-01-10T10:35:20;15.45;;;2.83;;
34060;SDS011;20336;-33.424;-70.638;2024-01-10T10:37:51;12.43;;;2.38;;
34060;SDS011;20336;-33.424;-70.638;2024-01-10T10:40:18;4.95;;;2.15;;
34060;SDS011;20336;-33.424;-70.638;2024-01-10T10:42:46;5.88;;;2.08;;
34060;SDS011;20336;-33.424;-70.638;2024-01-10T10:45:18;8.55;;;2.25;;
34060;SDS011;20336;-33.424;-70.638;2024-01-10T10:48:01;13.02;;;2.50;;
34060;SDS011;20336;-33.424;-70.638;2024-01-10T10:50:30;8.57;;;2.22;;
34060;SDS011;20336;-33.424;-70.638;2024-01-10T10:53:00;14.32;;;2.70;;
34060;SDS011;20336;-33.424;-70.638;2024-01-10T10:55:29;12.52;;;2.25;;
34060;SDS011;20336;-33.424;-70.638;2024-01-10T10:57:56;10.95;;;2.78;;
34060;SDS011;20336;-33.424;-70.638;2024-01-10T11:00:24;23.40;;;3.08;;
34060;SDS011;20336;-33.424;-70.638;2024-01-10T11:02:55;9.65;;;2.60;;
34060;SDS011;20336;-33.424;-70.638;2024-01-10T11:05:23;20.33;;;3.10;;
34060;SDS011;20336;-33.424;-70.638;2024-01-10T11:07:51;12.68;;;2.83;;
34060;SDS011;20336;-33.424;-70.638;2024-01-10T11:10:19;12.00;;;3.20;;
34060;SDS011;20336;-33.424;-70.638;2024-01-10T11:13:00;13.20;;;3.33;;
34060;SDS011;20336;-33.424;-70.638;2024-01-10T11:15:47;11.25;;;2.90;;
34060;SDS011;20336;-33.424;-70.638;2024-01-10T11:18:26;12.18;;;3.35;;
34060;SDS011;20336;-33.424;-70.638;2024-01-10T11:26:10;9.60;;;2.78;;
34060;SDS011;20336;-33.424;-70.638;2024-01-10T11:28:38;12.25;;;3.70;;
34060;SDS011;20336;-33.424;-70.638;2024-01-10T11:31:08;15.80;;;3.95;;
34060;SDS011;20336;-33.424;-70.638;2024-01-10T11:33:36;8.93;;;3.45;;
34060;SDS011;20336;-33.424;-70.638;2024-01-10T11:36:18;13.98;;;3.75;;
34060;SDS011;20336;-33.424;-70.638;2024-01-10T11:38:49;13.98;;;3.72;;
34060;SDS011;20336;-33.424;-70.638;2024-01-10T11:41:53;9.85;;;3.55;;
34060;SDS011;20336;-33.424;-70.638;2024-01-10T11:46:49;15.45;;;4.07;;
34060;SDS011;20336;-33.424;-70.638;2024-01-10T11:49:17;12.73;;;3.25;;
34060;SDS011;20336;-33.424;-70.638;2024-01-10T11:51:44;12.02;;;3.50;;
34060;SDS011;20336;-33.424;-70.638;2024-01-10T11:54:12;11.95;;;3.95;;
34060;SDS011;20336;-33.424;-70.638;2024-01-10T11:57:00;13.68;;;4.68;;
34060;SDS011;20336;-33.424;-70.638;2024-01-10T11:59:27;16.63;;;4.57;;
34060;SDS011;20336;-33.424;-70.638;2024-01-10T12:01:56;13.07;;;4.28;;
34060;SDS011;20336;-33.424;-70.638;2024-01-10T12:04:23;18.50;;;4.38;;
34060;SDS011;20336;-33.424;-70.638;2024-01-10T12:06:55;10.90;;;4.40;;
34060;SDS011;20336;-33.424;-70.638;2024-01-10T12:09:23;14.13;;;4.15;;
34060;SDS011;20336;-33.424;-70.638;2024-01-10T12:11:50;13.80;;;4.53;;
34060;SDS011;20336;-33.424;-70.638;2024-01-10T12:14:17;16.67;;;4.53;;
34060;SDS011;20336;-33.424;-70.638;2024-01-10T12:16:46;12.65;;;4.15;;
34060;SDS011;20336;-33.424;-70.638;2024-01-10T12:19:13;17.05;;;4.32;;
34060;SDS011;20336;-33.424;-70.638;2024-01-10T12:21:40;16.17;;;4.60;;
34060;SDS011;20336;-33.424;-70.638;2024-01-10T12:24:07;18.98;;;4.47;;
34060;SDS011;20336;-33.424;-70.638;2024-01-10T12:26:34;17.30;;;4.80;;
34060;SDS011;20336;-33.424;-70.638;2024-01-10T12:29:01;27.88;;;5.13;;
34060;SDS011;20336;-33.424;-70.638;2024-01-10T12:31:31;16.92;;;4.40;;
34060;SDS011;20336;-33.424;-70.638;2024-01-10T12:33:58;17.17;;;4.53;;
34060;SDS011;20336;-33.424;-70.638;2024-01-10T12:36:26;21.58;;;5.38;;
34060;SDS011;20336;-33.424;-70.638;2024-01-10T12:38:53;17.75;;;4.25;;
34060;SDS011;20336;-33.424;-70.638;2024-01-10T12:41:20;13.20;;;4.07;;
34060;SDS011;20336;-33.424;-70.638;2024-01-10T12:43:53;15.32;;;4.25;;
34060;SDS011;20336;-33.424;-70.638;2024-01-10T12:46:22;10.05;;;3.72;;
34060;SDS011;20336;-33.424;-70.638;2024-01-10T12:51:26;10.70;;;4.35;;
34060;SDS011;20336;-33.424;-70.638;2024-01-10T12:53:54;20.00;;;5.22;;
34060;SDS011;20336;-33.424;-70.638;2024-01-10T12:56:24;18.23;;;4.95;;
34060;SDS011;20336;-33.424;-70.638;2024-01-10T12:58:51;17.30;;;4.70;;
34060;SDS011;20336;-33.424;-70.638;2024-01-10T13:01:18;15.75;;;4.35;;
34060;SDS011;20336;-33.424;-70.638;2024-01-10T13:03:45;20.70;;;4.95;;
34060;SDS011;20336;-33.424;-70.638;2024-01-10T13:06:14;19.58;;;4.88;;
34060;SDS011;20336;-33.424;-70.638;2024-01-10T13:08:42;22.58;;;5.47;;
34060;SDS011;20336;-33.424;-70.638;2024-01-10T13:11:09;15.40;;;4.30;;
34060;SDS011;20336;-33.424;-70.638;2024-01-10T13:13:37;21.48;;;5.13;;
34060;SDS011;20336;-33.424;-70.638;2024-01-10T13:16:04;17.15;;;4.85;;
34060;SDS011;20336;-33.424;-70.638;2024-01-10T13:18:31;13.77;;;3.97;;
34060;SDS011;20336;-33.424;-70.638;2024-01-10T13:20:59;15.13;;;4.40;;
34060;SDS011;20336;-33.424;-70.638;2024-01-10T13:23:26;17.08;;;4.22;;
34060;SDS011;20336;-33.424;-70.638;2024-01-10T13:25:53;13.63;;;4.32;;
34060;SDS011;20336;-33.424;-70.638;2024-01-10T13:28:20;12.60;;;4.45;;
34060;SDS011;20336;-33.424;-70.638;2024-01-10T13:30:47;13.05;;;4.15;;
34060;SDS011;20336;-33.424;-70.638;2024-01-10T13:33:16;17.23;;;4.18;;
34060;SDS011;20336;-33.424;-70.638;2024-01-10T13:35:45;15.82;;;4.05;;
34060;SDS011;20336;-33.424;-70.638;2024-01-10T13:38:12;13.68;;;4.28;;
34060;SDS011;20336;-33.424;-70.638;2024-01-10T13:40:39;12.80;;;4.25;;
34060;SDS011;20336;-33.424;-70.638;2024-01-10T13:43:06;15.75;;;3.80;;
34060;SDS011;20336;-33.424;-70.638;2024-01-10T13:45:33;12.57;;;4.18;;
34060;SDS011;20336;-33.424;-70.638;2024-01-10T13:48:00;13.77;;;3.30;;
34060;SDS011;20336;-33.424;-70.638;2024-01-10T13:50:27;15.90;;;4.00;;
34060;SDS011;20336;-33.424;-70.638;2024-01-10T13:52:55;21.35;;;3.92;;
34060;SDS011;20336;-33.424;-70.638;2024-01-10T13:55:22;19.95;;;3.83;;
34060;SDS011;20336;-33.424;-70.638;2024-01-10T13:57:50;13.23;;;3.65;;
34060;SDS011;20336;-33.424;-70.638;2024-01-10T14:00:19;17.80;;;3.92;;
34060;SDS011;20336;-33.424;-70.638;2024-01-10T14:02:46;12.10;;;3.40;;
34060;SDS011;20336;-33.424;-70.638;2024-01-10T14:05:13;14.38;;;3.92;;
34060;SDS011;20336;-33.424;-70.638;2024-01-10T14:07:40;10.93;;;2.95;;
34060;SDS011;20336;-33.424;-70.638;2024-01-10T14:10:10;15.63;;;3.70;;
34060;SDS011;20336;-33.424;-70.638;2024-01-10T14:12:38;14.23;;;3.70;;
34060;SDS011;20336;-33.424;-70.638;2024-01-10T14:15:05;16.38;;;3.38;;
34060;SDS011;20336;-33.424;-70.638;2024-01-10T14:17:33;15.82;;;3.35;;
34060;SDS011;20336;-33.424;-70.638;2024-01-10T14:20:00;15.02;;;3.28;;
34060;SDS011;20336;-33.424;-70.638;2024-01-10T14:22:27;14.30;;;3.25;;
34060;SDS011;20336;-33.424;-70.638;2024-01-10T14:24:54;13.85;;;3.15;;